createdAt,value
2018-03-29T00:00:54.331Z,99.90
2018-03-29T00:03:30.191Z,99.90
2018-03-29T00:06:05.322Z,99.90
2018-03-29T00:08:40.495Z,99.90
2018-03-29T00:11:15.862Z,99.90
2018-03-29T00:13:51.021Z,99.90
2018-03-29T00:16:26.495Z,99.90
2018-03-29T00:19:01.935Z,99.90
2018-03-29T00:21:37.175Z,99.90
2018-03-29T00:24:12.471Z,99.90
2018-03-29T00:26:47.664Z,99.90
2018-03-29T00:29:22.894Z,99.90
2018-03-29T00:31:58.322Z,99.90
2018-03-29T00:34:34.451Z,99.90
2018-03-29T00:37:11.005Z,99.90
2018-03-29T00:39:46.820Z,99.90
2018-03-29T00:42:22.316Z,99.90
2018-03-29T00:44:58.944Z,99.90
2018-03-29T00:47:36.154Z,99.90
2018-03-29T00:50:12.291Z,99.90
2018-03-29T00:52:47.331Z,99.90
2018-03-29T00:55:23.686Z,99.90
2018-03-29T00:57:59.234Z,99.90
2018-03-29T01:00:35.606Z,99.90
2018-03-29T01:03:11.052Z,99.90
2018-03-29T01:05:46.206Z,99.90
2018-03-29T01:08:21.420Z,99.90
2018-03-29T01:10:56.662Z,99.90
2018-03-29T01:13:32.323Z,99.90
2018-03-29T01:16:07.961Z,99.90
2018-03-29T01:18:43.406Z,99.90
2018-03-29T01:21:18.445Z,99.90
2018-03-29T01:23:53.579Z,99.90
2018-03-29T01:26:28.821Z,99.90
2018-03-29T01:29:04.065Z,99.90
2018-03-29T01:31:39.513Z,99.90
2018-03-29T01:34:15.459Z,99.90
2018-03-29T01:36:51.050Z,99.90
2018-03-29T01:39:26.090Z,99.90
2018-03-29T01:42:01.542Z,99.90
2018-03-29T01:44:37.956Z,99.90
2018-03-29T01:47:13.155Z,99.90
2018-03-29T01:49:48.538Z,99.90
2018-03-29T01:52:23.372Z,99.90
2018-03-29T01:54:58.607Z,99.90
2018-03-29T01:57:33.580Z,99.90
2018-03-29T02:00:08.473Z,99.90
2018-03-29T02:02:43.624Z,99.90
2018-03-29T02:05:18.853Z,99.90
2018-03-29T02:07:53.991Z,99.90
2018-03-29T02:10:28.821Z,99.90
2018-03-29T02:13:04.061Z,99.90
2018-03-29T02:15:39.099Z,99.90
2018-03-29T02:18:14.539Z,99.90
2018-03-29T02:20:50.738Z,99.90
2018-03-29T02:23:26.043Z,99.90
2018-03-29T02:26:01.487Z,99.90
2018-03-29T02:28:37.111Z,99.70
2018-03-29T02:31:12.384Z,99.70
2018-03-29T02:33:47.826Z,99.30
2018-03-29T02:36:22.868Z,99.20
2018-03-29T02:39:00.182Z,99.10
2018-03-29T02:41:35.593Z,98.90
2018-03-29T02:44:10.525Z,98.80
2018-03-29T02:46:45.557Z,98.80
2018-03-29T02:49:21.122Z,98.40
2018-03-29T02:51:56.037Z,98.30
2018-03-29T02:54:31.004Z,98.40
2018-03-29T02:57:06.723Z,98.00
2018-03-29T02:59:41.760Z,97.80
2018-03-29T03:02:17.102Z,97.60
2018-03-29T03:04:52.545Z,97.60
2018-03-29T03:07:27.512Z,97.40
2018-03-29T03:10:02.953Z,96.90
2018-03-29T03:12:38.672Z,96.10
2018-03-29T03:15:13.913Z,96.10
2018-03-29T03:17:49.286Z,96.10
2018-03-29T03:20:24.802Z,96.00
2018-03-29T03:23:00.451Z,95.70
2018-03-29T03:25:35.285Z,95.70
2018-03-29T03:28:10.124Z,95.50
2018-03-29T03:30:47.197Z,95.50
2018-03-29T03:33:22.237Z,95.50
2018-03-29T03:35:57.675Z,95.40
2018-03-29T03:38:32.917Z,95.50
2018-03-29T03:41:08.770Z,95.50
2018-03-29T03:43:43.807Z,95.50
2018-03-29T03:46:18.786Z,95.30
2018-03-29T03:48:54.899Z,95.20
2018-03-29T03:51:31.267Z,95.30
2018-03-29T03:54:06.917Z,95.20
2018-03-29T03:56:42.283Z,95.30
2018-03-29T03:59:18.116Z,95.30
2018-03-29T04:01:53.556Z,95.30
2018-03-29T04:04:28.386Z,95.30
2018-03-29T04:07:03.837Z,95.20
2018-03-29T04:09:39.480Z,95.40
2018-03-29T04:12:14.518Z,95.20
2018-03-29T04:14:49.550Z,95.10
2018-03-29T04:17:24.585Z,95.10
2018-03-29T04:20:00.101Z,95.10
2018-03-29T04:22:34.862Z,95.00
2018-03-29T04:25:09.696Z,95.00
2018-03-29T04:27:45.136Z,95.00
2018-03-29T04:30:20.584Z,95.00
2018-03-29T04:32:55.615Z,94.90
2018-03-29T04:35:31.060Z,94.60
2018-03-29T04:38:06.713Z,94.50
2018-03-29T04:40:41.542Z,94.50
2018-03-29T04:43:16.746Z,94.50
2018-03-29T04:45:52.326Z,94.40
2018-03-29T04:48:27.471Z,94.30
2018-03-29T04:51:03.870Z,94.50
2018-03-29T04:53:39.310Z,94.50
2018-03-29T04:56:14.824Z,94.50
2018-03-29T04:58:50.677Z,94.50
2018-03-29T05:01:25.406Z,94.50
2018-03-29T05:04:01.260Z,94.60
2018-03-29T05:06:36.230Z,94.50
2018-03-29T05:09:12.354Z,94.20
2018-03-29T05:11:48.112Z,94.40
2018-03-29T05:14:23.757Z,94.50
2018-03-29T05:16:58.587Z,94.50
2018-03-29T05:19:33.830Z,94.50
2018-03-29T05:22:09.065Z,94.70
2018-03-29T05:24:44.513Z,94.70
2018-03-29T05:27:20.877Z,94.70
2018-03-29T05:29:56.935Z,94.70
2018-03-29T05:32:31.973Z,94.90
2018-03-29T05:35:06.802Z,94.90
2018-03-29T05:37:42.047Z,94.90
2018-03-29T05:40:17.489Z,94.90
2018-03-29T05:42:52.522Z,95.00
2018-03-29T05:45:27.555Z,95.00
2018-03-29T05:48:02.803Z,95.10
2018-03-29T05:50:38.654Z,95.40
2018-03-29T05:53:13.493Z,95.40
2018-03-29T05:55:48.515Z,95.40
2018-03-29T05:58:23.550Z,95.70
2018-03-29T06:00:58.791Z,95.80
2018-03-29T06:03:33.826Z,95.60
2018-03-29T06:06:08.867Z,95.80
2018-03-29T06:08:44.100Z,95.70
2018-03-29T06:11:20.161Z,95.70
2018-03-29T06:14:01.061Z,95.70
2018-03-29T06:16:41.722Z,95.70
2018-03-29T06:19:17.143Z,95.30
2018-03-29T06:21:52.281Z,95.20
2018-03-29T06:24:28.755Z,95.40
2018-03-29T06:27:03.989Z,95.40
2018-03-29T06:29:39.643Z,95.30
2018-03-29T06:32:14.572Z,95.30
2018-03-29T06:34:49.607Z,95.30
2018-03-29T06:40:06.028Z,95.80
2018-03-29T06:42:40.963Z,95.50
2018-03-29T06:45:16.609Z,95.80
2018-03-29T06:47:51.854Z,95.80
2018-03-29T06:50:27.307Z,96.10
2018-03-29T06:53:02.738Z,96.00
2018-03-29T06:55:37.775Z,96.30
2018-03-29T06:58:14.250Z,96.20
2018-03-29T07:00:49.416Z,96.20
2018-03-29T07:03:24.927Z,96.30
2018-03-29T07:06:00.373Z,96.00
2018-03-29T07:08:35.864Z,96.00
2018-03-29T07:11:11.874Z,95.90
2018-03-29T07:13:47.734Z,95.90
2018-03-29T07:16:30.088Z,95.60
2018-03-29T07:19:07.019Z,93.90
2018-03-29T07:21:42.402Z,93.90
2018-03-29T07:24:18.013Z,92.00
2018-03-29T07:26:53.377Z,90.30
2018-03-29T07:29:28.726Z,89.00
2018-03-29T07:32:03.933Z,87.10
2018-03-29T07:34:38.980Z,84.90
2018-03-29T07:37:14.622Z,82.90
2018-03-29T07:39:49.657Z,82.90
2018-03-29T07:42:24.482Z,84.10
2018-03-29T07:45:01.318Z,86.40
2018-03-29T07:47:36.501Z,88.60
2018-03-29T07:50:11.741Z,86.10
2018-03-29T07:52:46.988Z,80.30
2018-03-29T07:55:22.424Z,75.10
2018-03-29T07:57:57.912Z,73.00
2018-03-29T08:00:33.630Z,71.20
2018-03-29T08:03:08.660Z,71.10
2018-03-29T08:05:43.897Z,74.00
2018-03-29T08:08:19.549Z,75.50
2018-03-29T08:10:54.786Z,75.80
2018-03-29T08:13:30.267Z,70.50
2018-03-29T08:16:05.266Z,70.50
2018-03-29T08:18:41.735Z,74.40
2018-03-29T08:21:17.797Z,74.20
2018-03-29T08:23:54.061Z,73.80
2018-03-29T08:26:28.887Z,73.70
2018-03-29T08:29:04.332Z,73.30
2018-03-29T08:31:39.317Z,71.20
2018-03-29T08:34:14.822Z,70.50
2018-03-29T08:36:50.054Z,77.00
2018-03-29T08:39:25.698Z,82.20
2018-03-29T08:42:01.160Z,85.00
2018-03-29T08:44:36.593Z,85.70
2018-03-29T08:47:12.454Z,86.20
2018-03-29T08:49:48.103Z,83.60
2018-03-29T08:52:22.933Z,84.00
2018-03-29T08:54:58.580Z,85.80
2018-03-29T08:57:33.414Z,86.60
2018-03-29T09:00:08.848Z,85.10
2018-03-29T09:02:44.501Z,84.40
2018-03-29T09:05:19.842Z,86.10
2018-03-29T09:07:55.395Z,87.90
2018-03-29T09:10:30.640Z,89.20
2018-03-29T09:13:06.281Z,89.70
2018-03-29T09:15:41.728Z,86.60
2018-03-29T09:18:17.475Z,84.10
2018-03-29T09:20:52.146Z,86.60
2018-03-29T09:23:27.552Z,87.50
2018-03-29T09:26:02.791Z,86.90
2018-03-29T09:28:38.238Z,87.90
2018-03-29T09:31:13.476Z,88.30
2018-03-29T09:33:48.714Z,89.00
2018-03-29T09:36:25.182Z,90.20
2018-03-29T09:39:00.014Z,90.20
2018-03-29T09:41:35.464Z,90.70
2018-03-29T09:44:10.902Z,90.70
2018-03-29T09:46:46.342Z,90.80
2018-03-29T09:49:21.582Z,91.20
2018-03-29T09:51:57.441Z,91.70
2018-03-29T09:54:32.675Z,91.90
2018-03-29T09:57:08.123Z,91.90
2018-03-29T09:59:43.667Z,92.00
2018-03-29T10:02:19.217Z,92.10
2018-03-29T10:04:59.727Z,91.50
2018-03-29T10:07:34.921Z,91.90
2018-03-29T10:10:10.675Z,91.90
2018-03-29T10:12:45.808Z,91.90
2018-03-29T10:15:20.993Z,91.50
2018-03-29T10:17:56.493Z,90.80
2018-03-29T10:20:31.329Z,91.20
2018-03-29T10:23:06.558Z,91.40
2018-03-29T10:25:41.598Z,90.90
2018-03-29T10:28:16.840Z,91.20
2018-03-29T10:30:51.872Z,91.50
2018-03-29T10:33:28.035Z,91.20
2018-03-29T10:36:03.270Z,91.10
2018-03-29T10:38:38.509Z,91.10
2018-03-29T10:41:13.692Z,91.90
2018-03-29T10:43:50.014Z,90.90
2018-03-29T10:46:25.393Z,90.80
2018-03-29T10:49:00.294Z,91.00
2018-03-29T10:51:35.737Z,91.40
2018-03-29T10:54:11.938Z,91.70
2018-03-29T10:56:47.341Z,91.70
2018-03-29T10:59:23.197Z,91.90
2018-03-29T11:01:58.648Z,91.60
2018-03-29T11:04:33.885Z,92.00
2018-03-29T11:07:09.125Z,92.80
2018-03-29T11:09:44.262Z,92.20
2018-03-29T11:12:20.468Z,92.70
2018-03-29T11:14:56.071Z,92.70
2018-03-29T11:17:34.979Z,91.30
2018-03-29T11:20:13.824Z,90.80
2018-03-29T11:22:50.294Z,90.40
2018-03-29T11:25:25.226Z,90.30
2018-03-29T11:28:00.463Z,90.00
2018-03-29T11:30:35.706Z,89.90
2018-03-29T11:33:11.349Z,90.50
2018-03-29T11:35:47.002Z,91.10
2018-03-29T11:38:23.061Z,90.20
2018-03-29T11:40:57.889Z,90.20
2018-03-29T11:43:33.541Z,89.30
2018-03-29T11:46:10.008Z,82.60
2018-03-29T11:48:45.706Z,82.40
2018-03-29T11:51:20.794Z,83.30
2018-03-29T11:53:55.931Z,81.80
2018-03-29T11:56:31.581Z,79.30
2018-03-29T11:59:06.717Z,74.70
2018-03-29T12:01:42.574Z,73.40
2018-03-29T12:04:18.220Z,72.40
2018-03-29T12:06:53.942Z,73.00
2018-03-29T12:09:29.317Z,69.30
2018-03-29T12:12:04.349Z,70.50
2018-03-29T12:14:39.596Z,66.60
2018-03-29T12:17:14.735Z,65.70
2018-03-29T12:19:49.667Z,71.70
2018-03-29T12:22:26.134Z,66.70
2018-03-29T12:25:02.862Z,67.10
2018-03-29T12:27:38.046Z,67.10
2018-03-29T12:30:13.901Z,71.80
2018-03-29T12:32:49.650Z,69.10
2018-03-29T12:35:25.100Z,70.50
2018-03-29T12:38:00.547Z,72.70
2018-03-29T12:40:37.019Z,73.90
2018-03-29T12:43:12.198Z,73.80
2018-03-29T12:45:48.206Z,69.90
2018-03-29T12:48:23.650Z,69.70
2018-03-29T12:50:59.154Z,70.00
2018-03-29T12:53:34.332Z,68.60
2018-03-29T12:56:21.458Z,68.70
2018-03-29T12:58:56.491Z,68.50
2018-03-29T13:01:31.835Z,66.70
2018-03-29T13:04:06.976Z,69.80
2018-03-29T13:06:42.112Z,68.60
2018-03-29T13:09:17.957Z,65.20
2018-03-29T13:11:54.423Z,69.20
2018-03-29T13:14:29.693Z,70.30
2018-03-29T13:17:05.388Z,70.60
2018-03-29T13:19:40.698Z,71.20
2018-03-29T13:22:16.265Z,72.80
2018-03-29T13:24:51.513Z,72.90
2018-03-29T13:27:27.419Z,74.10
2018-03-29T13:30:04.186Z,75.30
2018-03-29T13:32:39.931Z,74.60
2018-03-29T13:35:15.626Z,75.30
2018-03-29T13:37:51.617Z,71.40
2018-03-29T13:40:27.631Z,68.30
2018-03-29T13:43:03.559Z,71.70
2018-03-29T13:45:38.588Z,72.30
2018-03-29T13:48:14.928Z,72.80
2018-03-29T13:50:50.717Z,73.70
2018-03-29T13:53:26.670Z,73.70
2018-03-29T13:56:02.084Z,69.70
2018-03-29T13:58:39.149Z,71.20
2018-03-29T14:01:14.346Z,71.20
2018-03-29T14:03:49.672Z,76.50
2018-03-29T14:06:25.430Z,79.30
2018-03-29T14:09:00.622Z,80.10
2018-03-29T14:11:35.699Z,79.70
2018-03-29T14:14:11.324Z,81.00
2018-03-29T14:16:48.182Z,82.10
2018-03-29T14:19:23.808Z,84.80
2018-03-29T14:21:58.852Z,85.00
2018-03-29T14:24:33.945Z,84.80
2018-03-29T14:27:09.393Z,86.80
2018-03-29T14:29:46.067Z,88.10
2018-03-29T14:32:22.327Z,89.80
2018-03-29T14:34:58.154Z,89.70
2018-03-29T14:37:34.085Z,89.00
2018-03-29T14:40:10.201Z,87.70
2018-03-29T14:42:45.850Z,87.70
2018-03-29T14:45:21.898Z,88.40
2018-03-29T14:47:57.146Z,87.50
2018-03-29T14:50:32.674Z,86.80
2018-03-29T14:53:10.153Z,83.60
2018-03-29T14:55:45.647Z,83.60
2018-03-29T14:58:20.878Z,82.40
2018-03-29T15:00:55.941Z,81.00
2018-03-29T15:03:31.239Z,82.50
2018-03-29T15:06:07.308Z,80.40
2018-03-29T15:08:42.141Z,81.80
2018-03-29T15:11:18.415Z,81.60
2018-03-29T15:13:53.312Z,82.40
2018-03-29T15:16:28.424Z,83.70
2018-03-29T15:19:04.957Z,79.80
2018-03-29T15:21:40.430Z,79.80
2018-03-29T15:24:15.630Z,80.20
2018-03-29T15:26:51.277Z,80.80
2018-03-29T15:29:26.719Z,82.30
2018-03-29T15:32:02.980Z,84.80
2018-03-29T15:34:38.223Z,84.80
2018-03-29T15:37:13.702Z,87.20
2018-03-29T15:39:49.728Z,89.20
2018-03-29T15:42:24.966Z,89.10
2018-03-29T15:45:00.717Z,89.10
2018-03-29T15:47:36.059Z,88.60
2018-03-29T15:50:11.137Z,87.60
2018-03-29T15:52:46.543Z,88.70
2018-03-29T15:55:21.952Z,88.90
2018-03-29T15:57:57.436Z,88.70
2018-03-29T16:00:32.874Z,90.20
2018-03-29T16:03:08.113Z,90.20
2018-03-29T16:05:43.765Z,90.00
2018-03-29T16:08:19.215Z,89.40
2018-03-29T16:10:55.066Z,90.00
2018-03-29T16:13:30.111Z,90.30
2018-03-29T16:16:05.236Z,90.50
2018-03-29T16:18:40.221Z,90.50
2018-03-29T16:21:15.591Z,90.50
2018-03-29T16:23:51.571Z,90.60
2018-03-29T16:26:26.755Z,90.90
2018-03-29T16:29:01.849Z,91.50
2018-03-29T16:31:37.093Z,91.70
2018-03-29T16:34:13.145Z,91.70
2018-03-29T16:36:47.972Z,91.70
2018-03-29T16:39:23.830Z,91.60
2018-03-29T16:41:59.478Z,91.60
2018-03-29T16:44:34.922Z,91.60
2018-03-29T16:47:10.172Z,91.40
2018-03-29T16:49:45.407Z,91.60
2018-03-29T16:52:20.745Z,92.60
2018-03-29T16:54:56.393Z,92.80
2018-03-29T16:57:31.842Z,92.70
2018-03-29T17:00:07.282Z,93.10
2018-03-29T17:02:42.750Z,93.90
2018-03-29T17:05:17.559Z,94.30
2018-03-29T17:07:53.207Z,94.30
2018-03-29T17:10:28.548Z,93.80
2018-03-29T17:13:04.854Z,93.60
2018-03-29T17:15:41.295Z,93.60
2018-03-29T17:18:16.325Z,93.60
2018-03-29T17:20:51.978Z,93.90
2018-03-29T17:23:27.411Z,94.30
2018-03-29T17:26:02.663Z,94.20
2018-03-29T17:28:38.098Z,94.40
2018-03-29T17:31:13.953Z,94.80
2018-03-29T17:33:49.001Z,94.10
2018-03-29T17:36:24.946Z,94.40
2018-03-29T17:39:00.596Z,94.40
2018-03-29T17:41:36.606Z,94.80
2018-03-29T17:44:12.507Z,95.00
2018-03-29T17:46:47.441Z,95.00
2018-03-29T17:49:23.089Z,95.60
2018-03-29T17:51:57.927Z,96.00
2018-03-29T17:54:32.791Z,96.00
2018-03-29T17:57:08.401Z,96.20
2018-03-29T17:59:43.598Z,95.90
2018-03-29T18:02:18.629Z,95.90
2018-03-29T18:04:54.530Z,95.80
2018-03-29T18:07:29.770Z,96.10
2018-03-29T18:10:05.419Z,96.10
2018-03-29T18:12:40.815Z,96.20
2018-03-29T18:15:16.364Z,96.50
2018-03-29T18:17:52.172Z,96.50
2018-03-29T18:20:27.609Z,96.60
2018-03-29T18:23:03.462Z,97.30
2018-03-29T18:25:39.455Z,97.30
2018-03-29T18:28:14.553Z,97.90
2018-03-29T18:30:49.489Z,98.20
2018-03-29T18:33:24.934Z,98.20
2018-03-29T18:35:59.775Z,98.40
2018-03-29T18:38:36.027Z,98.40
2018-03-29T18:41:11.491Z,98.40
2018-03-29T18:43:46.753Z,98.70
2018-03-29T18:46:23.389Z,99.30
2018-03-29T18:48:58.432Z,99.30
2018-03-29T18:51:33.514Z,99.20
2018-03-29T18:54:08.906Z,99.30
2018-03-29T18:56:44.557Z,99.40
2018-03-29T18:59:19.790Z,99.60
2018-03-29T19:01:55.372Z,99.70
2018-03-29T19:04:30.534Z,99.50
2018-03-29T19:07:06.448Z,99.40
2018-03-29T19:09:42.804Z,99.40
2018-03-29T19:12:18.753Z,99.40
2018-03-29T19:14:54.069Z,99.60
2018-03-29T19:17:29.065Z,99.90
2018-03-29T19:20:04.825Z,99.90
2018-03-29T19:22:41.311Z,99.90
2018-03-29T19:25:17.021Z,99.90
2018-03-29T19:27:52.138Z,99.90
2018-03-29T19:30:27.382Z,99.90
2018-03-29T19:33:02.841Z,99.90
2018-03-29T19:35:38.424Z,99.90
2018-03-29T19:38:14.488Z,99.90
2018-03-29T19:40:50.286Z,99.90
2018-03-29T19:43:26.241Z,99.90
2018-03-29T19:46:01.274Z,99.90
2018-03-29T19:48:36.254Z,99.90
2018-03-29T19:51:11.343Z,99.90
2018-03-29T19:53:46.698Z,99.90
2018-03-29T19:56:21.619Z,99.90
2018-03-29T19:58:57.372Z,99.90
2018-03-29T20:01:33.021Z,99.90
2018-03-29T20:04:08.464Z,99.90
2018-03-29T20:06:43.501Z,99.90
2018-03-29T20:09:19.353Z,99.90
2018-03-29T20:14:58.506Z,99.90
2018-03-29T20:17:33.959Z,99.90
2018-03-29T20:20:09.704Z,99.90
2018-03-29T20:22:45.558Z,99.90
2018-03-29T20:25:21.616Z,99.90
2018-03-29T20:27:56.861Z,99.90
2018-03-29T20:30:32.301Z,99.90
2018-03-29T20:33:07.948Z,99.90
2018-03-29T20:35:43.071Z,99.90
2018-03-29T20:38:18.792Z,99.90
2018-03-29T20:40:54.014Z,99.90
2018-03-29T20:43:29.050Z,99.90
2018-03-29T20:46:04.706Z,99.90
2018-03-29T20:48:39.803Z,99.90
2018-03-29T20:51:14.566Z,99.90
2018-03-29T20:53:50.283Z,99.90
2018-03-29T20:56:25.627Z,99.90
2018-03-29T20:59:01.406Z,99.90
2018-03-29T21:01:37.227Z,99.90
2018-03-29T21:04:12.056Z,99.90
2018-03-29T21:06:47.305Z,99.90
2018-03-29T21:09:22.536Z,99.90
2018-03-29T21:11:57.777Z,99.90
2018-03-29T21:14:33.248Z,99.90
2018-03-29T21:17:08.261Z,99.90
2018-03-29T21:19:44.097Z,99.90
2018-03-29T21:22:19.409Z,99.90
2018-03-29T21:24:55.205Z,99.90
2018-03-29T21:27:30.251Z,99.90
2018-03-29T21:30:05.684Z,99.90
2018-03-29T21:32:43.858Z,99.90
2018-03-29T21:35:18.992Z,99.90
2018-03-29T21:37:55.297Z,99.90
2018-03-29T21:40:30.632Z,99.90
2018-03-29T21:43:05.720Z,99.90
2018-03-29T21:45:40.831Z,99.90
2018-03-29T21:48:16.294Z,99.90
2018-03-29T21:50:51.657Z,99.90
2018-03-29T21:53:27.083Z,99.90
2018-03-29T21:56:02.126Z,99.90
2018-03-29T21:58:37.373Z,99.90
2018-03-29T22:01:12.483Z,99.90
2018-03-29T22:03:47.809Z,99.90
2018-03-29T22:06:23.139Z,99.90
2018-03-29T22:08:58.792Z,99.90
2018-03-29T22:11:34.442Z,99.90
2018-03-29T22:14:09.279Z,99.90
2018-03-29T22:16:44.519Z,99.90
2018-03-29T22:19:20.371Z,99.90
2018-03-29T22:21:55.823Z,99.90
2018-03-29T22:24:31.286Z,99.90
2018-03-29T22:27:06.803Z,99.90
2018-03-29T22:29:42.553Z,99.90
2018-03-29T22:32:17.818Z,99.90
2018-03-29T22:34:53.013Z,99.90
2018-03-29T22:37:29.499Z,99.90
2018-03-29T22:40:06.121Z,99.90
2018-03-29T22:42:41.616Z,99.90
2018-03-29T22:45:17.583Z,99.90
2018-03-29T22:47:53.404Z,99.90
2018-03-29T22:50:28.880Z,99.90
2018-03-29T22:53:04.651Z,99.90
2018-03-29T22:55:39.557Z,99.90
2018-03-29T22:58:14.387Z,99.90
2018-03-29T23:00:50.250Z,99.90
2018-03-29T23:03:25.481Z,99.90
2018-03-29T23:06:00.726Z,99.90
2018-03-29T23:08:35.960Z,99.90
2018-03-29T23:11:11.207Z,99.90
2018-03-29T23:13:46.031Z,99.90
2018-03-29T23:16:21.066Z,99.90
2018-03-29T23:18:56.717Z,99.90
2018-03-29T23:21:31.757Z,99.90
2018-03-29T23:24:06.783Z,99.90
2018-03-29T23:26:42.846Z,99.90
2018-03-29T23:29:17.883Z,99.90
2018-03-29T23:31:53.123Z,99.90
2018-03-29T23:34:28.158Z,99.90
2018-03-29T23:37:03.398Z,99.90
2018-03-29T23:39:38.228Z,99.90
2018-03-29T23:42:14.285Z,99.90
2018-03-29T23:44:49.525Z,99.90
2018-03-29T23:47:24.968Z,99.90
2018-03-29T23:50:00.524Z,99.90
2018-03-29T23:52:37.399Z,99.90
2018-03-29T23:55:13.047Z,99.90
2018-03-29T23:57:48.853Z,99.90
